This is the latest recevied weather packets stored in our database for station/object K1WJY. If no packets are shown the sender has not sent any weather packets the latest 1 day(s).
| Time | Temp. | Humidity | Pressure | Rain* | Wind** | Luminosity | Snow |
|---|---|---|---|---|---|---|---|
| 1778003668 | 14.44° C | 81% | 1010.2 hPa | 0 mm | 2.24 m/s, 254° | 622 W/m² | - |
| 1778003364 | 14.44° C | 82% | 1010 hPa | 0 mm | 4.02 m/s, 228° | 658 W/m² | - |
| 1778003062 | 13.89° C | 83% | 1010.3 hPa | 0 mm | 2.24 m/s, 131° | 649 W/m² | - |
| 1778002758 | 14.44° C | 82% | 1010.4 hPa | 0 mm | 1.79 m/s, 182° | 662 W/m² | - |
| 1778002454 | 13.89° C | 84% | 1010.4 hPa | 0 mm | 2.24 m/s, 221° | 670 W/m² | - |
| 1778002151 | 14.44° C | 83% | 1010.4 hPa | 0 mm | 2.24 m/s, 205° | 669 W/m² | - |
| 1778001849 | 14.44° C | 82% | 1010.6 hPa | 0 mm | 4.02 m/s, 166° | 698 W/m² | - |
| 1778001549 | 13.89° C | 82% | 1010.6 hPa | 0 mm | 2.68 m/s, 252° | 754 W/m² | - |
| 1778001246 | 13.89° C | 82% | 1010.6 hPa | 0 mm | 2.68 m/s, 120° | 916 W/m² | - |
| 1778000942 | 13.33° C | 85% | 1010.6 hPa | 0 mm | 2.24 m/s, 241° | 424 W/m² | - |
| 1778000639 | 13.33° C | 86% | 1010.8 hPa | 0 mm | 2.24 m/s, 156° | 449 W/m² | - |
| 1778000334 | 13.89° C | 82% | 1010.8 hPa | 0 mm | 4.92 m/s, 226° | 411 W/m² | - |
| 1778000030 | 14.44° C | 81% | 1011.3 hPa | 0 mm | 3.13 m/s, 175° | 724 W/m² | - |
| 1777999726 | 15° C | 80% | 1011.2 hPa | 0 mm | 1.34 m/s, 169° | 711 W/m² | - |
| 1777999423 | 15° C | 80% | 1011.3 hPa | 0 mm | 4.02 m/s, 173° | 704 W/m² | - |
| 1777999121 | 15° C | 79% | 1011.4 hPa | 0 mm | 2.24 m/s, 195° | 725 W/m² | - |
| 1777998820 | 15° C | 79% | 1011.3 hPa | 0 mm | 2.24 m/s, 188° | 724 W/m² | - |
| 1777998518 | 15.56° C | 78% | 1011.5 hPa | 0 mm | 4.02 m/s, 201° | 741 W/m² | - |
| 1777998214 | 15° C | 79% | 1011.2 hPa | 0 mm | 2.24 m/s, 223° | 763 W/m² | - |
| 1777997911 | 15° C | 79% | 1011.3 hPa | 0 mm | 4.02 m/s, 215° | 522 W/m² | - |
| 1777997608 | 15° C | 79% | 1011.1 hPa | 0 mm | 4.02 m/s, 219° | 766 W/m² | - |
| 1777997305 | 14.44° C | 82% | 1011.3 hPa | 0 mm | 0.45 m/s, 252° | 446 W/m² | - |
| 1777997003 | 13.89° C | 82% | 1011.2 hPa | 0 mm | 2.68 m/s, 152° | 669 W/m² | - |
| 1777996700 | 13.89° C | 81% | 1011.4 hPa | 0 mm | 4.92 m/s, 170° | 684 W/m² | - |
| 1777996395 | 14.44° C | 82% | 1011.3 hPa | 0 mm | 2.24 m/s, 199° | 688 W/m² | - |
* Rain latest hour (hover to see other rain measurements)
** Current wind speed in m/s (hover to see current wind gust speed)